createdAt,value
2018-09-13T00:03:13.574Z,101526.00
2018-09-13T00:09:17.204Z,101510.00
2018-09-13T00:15:20.659Z,101528.00
2018-09-13T00:21:24.131Z,101516.00
2018-09-13T00:27:27.602Z,101527.00
2018-09-13T00:33:31.169Z,101525.00
2018-09-13T00:39:34.916Z,101524.00
2018-09-13T00:45:39.550Z,101518.00
2018-09-13T00:51:42.997Z,101516.00
2018-09-13T00:57:46.526Z,101513.00
2018-09-13T01:03:50.285Z,101512.00
2018-09-13T01:09:54.026Z,101526.00
2018-09-13T01:15:57.401Z,101515.00
2018-09-13T01:22:00.719Z,101503.00
2018-09-13T01:28:04.286Z,101518.00
2018-09-13T01:34:07.979Z,101507.00
2018-09-13T01:40:11.778Z,101497.00
2018-09-13T01:46:15.513Z,101482.00
2018-09-13T01:52:19.079Z,101475.00
2018-09-13T01:58:22.703Z,101463.00
2018-09-13T02:04:26.667Z,101463.00
2018-09-13T02:10:30.354Z,101468.00
2018-09-13T02:16:33.793Z,101447.00
2018-09-13T02:22:37.443Z,101433.00
2018-09-13T02:28:41.114Z,101440.00
2018-09-13T02:34:46.122Z,101442.00
2018-09-13T02:40:49.797Z,101447.00
2018-09-13T02:46:53.750Z,101463.00
2018-09-13T02:52:57.601Z,101444.00
2018-09-13T02:59:01.543Z,101447.00
2018-09-13T03:05:06.050Z,101444.00
2018-09-13T03:11:10.439Z,101436.00
2018-09-13T03:17:14.058Z,101441.00
2018-09-13T03:23:17.790Z,101442.00
2018-09-13T03:29:22.659Z,101444.00
2018-09-13T03:35:26.666Z,101452.00
2018-09-13T03:41:31.107Z,101445.00
2018-09-13T03:47:35.541Z,101443.00
2018-09-13T03:53:38.901Z,101444.00
2018-09-13T03:59:42.391Z,101449.00
2018-09-13T04:05:50.360Z,101439.00
2018-09-13T04:11:56.946Z,101441.00
2018-09-13T04:18:00.615Z,101450.00
2018-09-13T04:24:04.417Z,101440.00
2018-09-13T04:30:08.099Z,101440.00
2018-09-13T04:36:12.015Z,101433.00
2018-09-13T04:42:16.262Z,101434.00
2018-09-13T04:48:19.942Z,101424.00
2018-09-13T04:54:23.253Z,101431.00
2018-09-13T05:00:27.235Z,101450.00
2018-09-13T05:06:30.788Z,101448.00
2018-09-13T05:12:34.673Z,101449.00
2018-09-13T05:18:38.489Z,101448.00
2018-09-13T05:24:42.590Z,101445.00
2018-09-13T05:30:46.134Z,101445.00
2018-09-13T05:36:50.056Z,101463.00
2018-09-13T05:42:54.005Z,101454.00
2018-09-13T05:48:57.734Z,101460.00
2018-09-13T05:55:01.578Z,101454.00
2018-09-13T06:01:05.624Z,101453.00
2018-09-13T06:07:09.461Z,101462.00
2018-09-13T06:13:13.333Z,101468.00
2018-09-13T06:19:17.221Z,101471.00
2018-09-13T06:25:20.932Z,101462.00
2018-09-13T06:31:25.670Z,101456.00
2018-09-13T06:37:29.296Z,101459.00
2018-09-13T06:43:33.131Z,101459.00
2018-09-13T06:49:38.410Z,101458.00
2018-09-13T06:55:41.965Z,101464.00
2018-09-13T07:01:46.155Z,101456.00
2018-09-13T07:07:49.877Z,101467.00
2018-09-13T07:13:56.297Z,101470.00
2018-09-13T07:20:00.089Z,101459.00
2018-09-13T07:26:03.519Z,101467.00
2018-09-13T07:32:07.488Z,101471.00
2018-09-13T07:38:11.239Z,101477.00
2018-09-13T07:44:15.929Z,101485.00
2018-09-13T07:50:20.362Z,101499.00
2018-09-13T07:56:24.049Z,101492.00
2018-09-13T08:02:27.462Z,101494.00
2018-09-13T08:08:31.188Z,101486.00
2018-09-13T08:14:36.321Z,101494.00
2018-09-13T08:20:39.718Z,101489.00
2018-09-13T08:26:43.330Z,101491.00
2018-09-13T08:32:47.078Z,101501.00
2018-09-13T08:38:54.144Z,101507.00
2018-09-13T08:44:57.966Z,101509.00
2018-09-13T08:51:01.675Z,101513.00
2018-09-13T08:57:05.135Z,101521.00
2018-09-13T09:03:08.641Z,101513.00
2018-09-13T09:09:12.566Z,101514.00
2018-09-13T09:15:16.492Z,101510.00
2018-09-13T09:21:19.919Z,101502.00
2018-09-13T09:27:23.791Z,101519.00
2018-09-13T09:33:27.505Z,101526.00
2018-09-13T09:39:32.206Z,101525.00
2018-09-13T09:45:35.857Z,101520.00
2018-09-13T09:51:40.268Z,101530.00
2018-09-13T09:57:44.093Z,101524.00
2018-09-13T10:03:52.184Z,101506.00
2018-09-13T10:09:57.122Z,101521.00
2018-09-13T10:16:06.455Z,101521.00
2018-09-13T10:22:15.679Z,101524.00
2018-09-13T10:28:24.980Z,101515.00
2018-09-13T10:34:34.158Z,101511.00
2018-09-13T10:40:43.268Z,101505.00
2018-09-13T10:46:51.467Z,101499.00
2018-09-13T10:53:58.941Z,101503.00
2018-09-13T11:00:02.894Z,101505.00
2018-09-13T11:06:07.346Z,101495.00
2018-09-13T11:12:12.357Z,101500.00
2018-09-13T11:18:16.293Z,101506.00
2018-09-13T11:24:19.673Z,101494.00
2018-09-13T11:30:24.566Z,101495.00
2018-09-13T11:36:28.382Z,101488.00
2018-09-13T11:42:31.872Z,101490.00
2018-09-13T11:48:35.228Z,101464.00
2018-09-13T11:54:38.789Z,101475.00
2018-09-13T12:00:42.510Z,101475.00
2018-09-13T12:06:46.537Z,101475.00
2018-09-13T12:12:50.054Z,101475.00
2018-09-13T12:18:53.479Z,101469.00
2018-09-13T12:24:56.865Z,101470.00
2018-09-13T12:31:00.400Z,101466.00
2018-09-13T12:37:04.275Z,101468.00
2018-09-13T12:43:07.911Z,101470.00
2018-09-13T12:49:12.187Z,101458.00
2018-09-13T12:55:15.602Z,101446.00
2018-09-13T13:01:19.176Z,101451.00
2018-09-13T13:07:22.847Z,101450.00
2018-09-13T13:13:26.292Z,101447.00
2018-09-13T13:19:29.834Z,101447.00
2018-09-13T13:25:33.298Z,101441.00
2018-09-13T13:31:36.671Z,101437.00
2018-09-13T13:37:40.640Z,101423.00
2018-09-13T13:43:44.229Z,101432.00
2018-09-13T13:49:47.969Z,101419.00
2018-09-13T13:55:51.330Z,101421.00
2018-09-13T14:01:54.899Z,101414.00
2018-09-13T14:07:58.457Z,101417.00
2018-09-13T14:14:01.912Z,101405.00
2018-09-13T14:20:05.493Z,101403.00
2018-09-13T14:26:09.090Z,101410.00
2018-09-13T14:32:13.158Z,101409.00
2018-09-13T14:38:17.135Z,101407.00
2018-09-13T14:44:20.825Z,101403.00
2018-09-13T14:50:24.297Z,101388.00
2018-09-13T14:56:28.458Z,101389.00
2018-09-13T15:02:31.822Z,101389.00
2018-09-13T15:08:35.183Z,101388.00
2018-09-13T15:14:39.007Z,101379.00
2018-09-13T15:20:42.671Z,101375.00
2018-09-13T15:26:46.290Z,101374.00
2018-09-13T15:32:49.801Z,101379.00
2018-09-13T15:38:53.607Z,101375.00
2018-09-13T15:44:57.062Z,101375.00
2018-09-13T15:51:00.564Z,101378.00
2018-09-13T15:57:07.353Z,101375.00
2018-09-13T16:03:10.898Z,101382.00
2018-09-13T16:09:14.770Z,101387.00
2018-09-13T16:15:18.719Z,101392.00
2018-09-13T16:21:23.723Z,101373.00
2018-09-13T16:27:28.156Z,101372.00
2018-09-13T16:33:31.786Z,101372.00
2018-09-13T16:39:41.169Z,101371.00
2018-09-13T16:45:44.997Z,101372.00
2018-09-13T16:51:48.911Z,101373.00
2018-09-13T16:57:53.313Z,101374.00
2018-09-13T17:03:57.477Z,101372.00
2018-09-13T17:10:02.570Z,101381.00
2018-09-13T17:16:08.408Z,101386.00
2018-09-13T17:22:14.183Z,101390.00
2018-09-13T17:28:18.976Z,101395.00
2018-09-13T17:34:27.639Z,101394.00
2018-09-13T17:40:33.689Z,101392.00
2018-09-13T17:46:40.035Z,101382.00
2018-09-13T17:52:45.016Z,101396.00
2018-09-13T18:05:02.593Z,101400.00
2018-09-13T18:11:06.769Z,101407.00
2018-09-13T18:17:11.297Z,101397.00
2018-09-13T18:23:15.875Z,101407.00
2018-09-13T18:29:20.581Z,101413.00
2018-09-13T18:35:24.954Z,101419.00
2018-09-13T18:41:28.802Z,101427.00
2018-09-13T18:47:32.698Z,101423.00
2018-09-13T18:53:37.073Z,101433.00
2018-09-13T18:59:41.210Z,101441.00
2018-09-13T19:05:45.099Z,101448.00
2018-09-13T19:11:49.583Z,101447.00
2018-09-13T19:17:53.717Z,101458.00
2018-09-13T19:23:57.838Z,101455.00
2018-09-13T19:30:02.029Z,101459.00
2018-09-13T19:36:06.577Z,101473.00
2018-09-13T19:42:11.937Z,101478.00
2018-09-13T19:48:15.922Z,101478.00
2018-09-13T19:54:22.897Z,101474.00
2018-09-13T20:00:28.755Z,101472.00
2018-09-13T20:06:35.159Z,101483.00
2018-09-13T20:12:40.816Z,101479.00
2018-09-13T20:18:50.955Z,101479.00
2018-09-13T20:24:55.967Z,101481.00
2018-09-13T20:30:59.783Z,101479.00
2018-09-13T20:37:03.306Z,101482.00
2018-09-13T20:43:07.108Z,101480.00
2018-09-13T20:49:11.422Z,101477.00
2018-09-13T20:55:15.154Z,101473.00
2018-09-13T21:01:19.228Z,101468.00
2018-09-13T21:07:23.019Z,101478.00
2018-09-13T21:13:26.903Z,101485.00
2018-09-13T21:19:30.710Z,101487.00
2018-09-13T21:25:34.271Z,101496.00
2018-09-13T21:31:38.353Z,101495.00
2018-09-13T21:37:42.879Z,101490.00
2018-09-13T21:43:46.589Z,101492.00
2018-09-13T21:49:50.273Z,101493.00
2018-09-13T21:55:54.005Z,101493.00
2018-09-13T22:01:57.591Z,101486.00
2018-09-13T22:08:01.085Z,101491.00
2018-09-13T22:14:05.186Z,101490.00
2018-09-13T22:20:08.837Z,101491.00
2018-09-13T22:26:12.528Z,101501.00
2018-09-13T22:32:17.074Z,101499.00
2018-09-13T22:38:20.639Z,101497.00
2018-09-13T22:44:24.033Z,101505.00
2018-09-13T22:50:27.890Z,101498.00
2018-09-13T22:56:31.502Z,101507.00
2018-09-13T23:02:40.698Z,101516.00
2018-09-13T23:08:44.422Z,101512.00
2018-09-13T23:14:47.866Z,101512.00
2018-09-13T23:20:51.669Z,101512.00
2018-09-13T23:26:55.769Z,101510.00
2018-09-13T23:32:59.495Z,101512.00
2018-09-13T23:39:05.019Z,101511.00
2018-09-13T23:45:08.814Z,101507.00
2018-09-13T23:51:12.390Z,101514.00
2018-09-13T23:57:15.938Z,101509.00
